createdAt,value
2023-09-05T00:01:58.762Z,101163.95668955159
2023-09-05T00:04:55.246Z,101165.80810374022
2023-09-05T00:07:51.886Z,101166.25218338602
2023-09-05T00:10:48.370Z,101174.65904193284
2023-09-05T00:13:44.954Z,101169.86201522856
2023-09-05T00:16:40.556Z,101173.8783505444
2023-09-05T00:19:36.097Z,101171.71573934618
2023-09-05T00:22:31.661Z,101171.08474420357
2023-09-05T00:25:27.168Z,101166.80709092309
2023-09-05T00:28:24.761Z,101172.78996714017
2023-09-05T00:31:20.393Z,101163.82659195793
2023-09-05T00:34:16.920Z,101168.97834935633
2023-09-05T00:37:16.410Z,101166.96446192054
2023-09-05T00:40:13.009Z,101165.79119727615
2023-09-05T00:43:08.551Z,101165.66138164699
2023-09-05T00:46:07.201Z,101165.44159017413
2023-09-05T00:49:03.652Z,101161.05718510151
2023-09-05T00:52:01.224Z,101157.41144465847
2023-09-05T00:54:57.783Z,101158.99956535082
2023-09-05T00:57:56.317Z,101157.37965039718
2023-09-05T01:00:52.922Z,101154.75080963457
2023-09-05T01:03:48.420Z,101160.7446721568
2023-09-05T01:06:53.974Z,101161.1082879925
2023-09-05T01:09:58.593Z,101156.01609495842
2023-09-05T01:12:58.035Z,101155.54334524646
2023-09-05T01:15:54.675Z,101154.00939632244
2023-09-05T01:18:50.205Z,101157.3359140301
2023-09-05T01:21:56.716Z,101157.59553561099
2023-09-05T01:24:54.329Z,101150.73750566709
2023-09-05T01:27:52.838Z,101154.10649983157
2023-09-05T01:30:48.383Z,101154.59079069528
2023-09-05T01:33:45.966Z,101161.22216166485
2023-09-05T01:36:41.504Z,101155.82746719323
2023-09-05T01:39:38.147Z,101159.93627776766
2023-09-05T01:42:33.638Z,101164.61796479565
2023-09-05T01:45:31.259Z,101165.22065350188
2023-09-05T01:48:26.760Z,101171.58461962188
2023-09-05T01:51:22.299Z,101162.93454806959
2023-09-05T01:54:18.883Z,101159.3400717663
2023-09-05T01:57:14.427Z,101157.92275887422
2023-09-05T02:00:12.020Z,101155.16336185174
2023-09-05T02:03:07.577Z,101155.72144056053
2023-09-05T02:06:03.152Z,101166.39467382949
2023-09-05T02:08:59.689Z,101161.00097858654
2023-09-05T02:11:55.245Z,101161.01980164179
2023-09-05T02:14:50.862Z,101164.9079537485
2023-09-05T02:17:48.434Z,101162.13660020482
2023-09-05T02:20:45.893Z,101172.059284499
2023-09-05T02:23:41.457Z,101172.6055115667
2023-09-05T02:26:38.050Z,101168.15578017847
2023-09-05T02:29:33.674Z,101171.44471145983
2023-09-05T02:32:30.169Z,101165.45579818646
2023-09-05T02:35:26.733Z,101166.21349621886
2023-09-05T02:38:23.284Z,101168.81161584753
2023-09-05T02:41:19.820Z,101172.18982810422
2023-09-05T02:44:16.398Z,101177.38513064473
2023-09-05T02:47:12.949Z,101160.02565399653
2023-09-05T02:50:09.525Z,101171.88420990239
2023-09-05T02:53:06.083Z,101174.29794412681
2023-09-05T02:56:02.644Z,101167.74455237736
2023-09-05T02:59:00.182Z,101166.96488937527
2023-09-05T03:01:55.784Z,101168.50446625618
2023-09-05T03:04:52.377Z,101175.5720652077
2023-09-05T03:07:49.874Z,101174.0741792912
2023-09-05T03:10:49.432Z,101179.10347556851
2023-09-05T03:13:46.009Z,101177.42603073042
2023-09-05T03:16:41.540Z,101176.84671093455
2023-09-05T03:19:38.108Z,101172.6055115667
2023-09-05T03:22:33.616Z,101173.5491417249
2023-09-05T03:25:29.199Z,101178.79408280276
2023-09-05T03:28:24.769Z,101185.42751387766
2023-09-05T03:31:20.495Z,101187.05070078657
2023-09-05T03:34:15.929Z,101190.55496596855
2023-09-05T03:37:11.444Z,101195.4985825373
2023-09-05T03:40:08.059Z,101189.35943636886
2023-09-05T03:43:04.628Z,101198.59386693085
2023-09-05T03:46:00.207Z,101197.1543808437
2023-09-05T03:48:57.830Z,101195.13331834562
2023-09-05T03:51:53.302Z,101200.90436668486
2023-09-05T03:54:49.818Z,101199.5223661277
2023-09-05T03:57:45.382Z,101199.34252570182
2023-09-05T04:00:42.024Z,101201.30107041333
2023-09-05T04:03:37.634Z,101209.0721466867
2023-09-05T04:06:33.084Z,101212.18846637181
2023-09-05T04:09:28.639Z,101213.35470009621
2023-09-05T04:12:24.238Z,101220.08402465764
2023-09-05T04:15:22.780Z,101221.92967266969
2023-09-05T04:18:20.316Z,101218.7558877733
2023-09-05T04:21:15.878Z,101222.37450896604
2023-09-05T04:24:11.444Z,101220.87927540796
2023-09-05T04:27:07.005Z,101214.8036516027
2023-09-05T04:30:04.590Z,101214.90392184451
2023-09-05T04:33:04.147Z,101217.66151841173
2023-09-05T04:35:59.687Z,101217.18179195175
2023-09-05T04:38:55.217Z,101213.77216826059
2023-09-05T04:41:52.777Z,101209.89028365785
2023-09-05T04:44:51.345Z,101220.304405655
2023-09-05T04:47:50.920Z,101219.26067530974
2023-09-05T04:50:46.462Z,101227.29008462797
2023-09-05T04:53:42.999Z,101224.19876703358
2023-09-05T04:56:38.562Z,101228.55262981243
2023-09-05T04:59:34.120Z,101233.47380794068
2023-09-05T05:02:32.670Z,101226.70131661708
2023-09-05T05:05:28.240Z,101226.83010750815
2023-09-05T05:08:24.174Z,101226.83010750815
2023-09-05T05:11:19.536Z,101232.73478524477
2023-09-05T05:14:14.940Z,101234.51487041633
2023-09-05T05:17:13.487Z,101245.0671074428
2023-09-05T05:20:10.056Z,101248.25194905554
2023-09-05T05:23:07.661Z,101252.23466697066
2023-09-05T05:26:03.170Z,101260.73119054109
2023-09-05T05:28:58.681Z,101257.8964044023
2023-09-05T05:31:55.264Z,101258.34434925899
2023-09-05T05:34:50.842Z,101259.71245508848
2023-09-05T05:37:46.416Z,101259.06317043342
2023-09-05T05:40:42.972Z,101248.14001850304
2023-09-05T05:43:39.537Z,101245.48080403364
2023-09-05T05:46:35.110Z,101250.45749974364
2023-09-05T05:49:31.649Z,101250.71649509325
2023-09-05T05:52:29.186Z,101246.55388528178
2023-09-05T05:55:24.789Z,101248.61990060823
2023-09-05T05:58:20.343Z,101252.95688663807
2023-09-05T06:01:18.915Z,101256.86817178455
2023-09-05T06:04:16.506Z,101256.89396900086
2023-09-05T06:07:13.003Z,101252.68252911074
2023-09-05T06:10:09.549Z,101254.99891509653
2023-09-05T06:13:06.119Z,101259.19845703826
2023-09-05T06:16:01.671Z,101257.78266627686
2023-09-05T06:18:57.249Z,101256.91209362783
2023-09-05T06:21:52.807Z,101267.24084591017
2023-09-05T06:24:50.367Z,101270.79882213303
2023-09-05T06:27:45.959Z,101277.34419399124
2023-09-05T06:30:43.505Z,101279.44452665368
2023-09-05T06:33:39.067Z,101282.45916962787
2023-09-05T06:36:39.882Z,101284.65116076446
2023-09-05T06:39:37.144Z,101285.56852073019
2023-09-05T06:42:32.721Z,101284.29655581551
2023-09-05T06:45:28.306Z,101288.18606174045
2023-09-05T06:48:24.942Z,101287.0730031711
2023-09-05T06:51:20.434Z,101291.91332165367
2023-09-05T06:54:15.976Z,101293.25990331471
2023-09-05T06:57:11.545Z,101297.69895012316
2023-09-05T07:00:09.072Z,101292.50635945551
2023-09-05T07:03:06.647Z,101290.51660351387
2023-09-05T07:06:07.302Z,101289.10929085896
2023-09-05T07:09:04.761Z,101293.77616183746
2023-09-05T07:12:01.314Z,101292.27790011864
2023-09-05T07:14:56.850Z,101302.01612043589
2023-09-05T07:17:53.461Z,101299.37584756404
2023-09-05T07:20:49.997Z,101304.23236408233
2023-09-05T07:23:45.550Z,101306.25371516151
2023-09-05T07:26:42.106Z,101313.80626413245
2023-09-05T07:29:37.675Z,101307.96780421589
2023-09-05T07:32:34.221Z,101307.60804743107
2023-09-05T07:35:29.772Z,101304.38514041198
2023-09-05T07:38:25.664Z,101301.82687109258
2023-09-05T07:41:21.893Z,101300.7339922301
2023-09-05T07:44:20.629Z,101301.70383623106
2023-09-05T07:47:16.991Z,101299.09382081393
2023-09-05T07:50:13.563Z,101295.20803324407
2023-09-05T07:53:09.189Z,101291.98341220678
2023-09-05T07:56:05.772Z,101302.6559569347
2023-09-05T07:59:01.264Z,101304.61776607539
2023-09-05T08:01:58.820Z,101301.00512252272
2023-09-05T08:04:57.378Z,101292.60462827342
2023-09-05T08:07:52.938Z,101293.12602524621
2023-09-05T08:10:50.509Z,101306.61385486287
2023-09-05T08:13:47.155Z,101291.37208710352
2023-09-05T08:16:43.604Z,101295.97867691786
2023-09-05T08:19:41.174Z,101287.40342477063
2023-09-05T08:22:39.873Z,101289.90017289964
2023-09-05T08:25:36.293Z,101291.79193071823
2023-09-05T08:28:33.835Z,101285.11073955195
2023-09-05T08:31:33.441Z,101290.26826629016
2023-09-05T08:34:30.068Z,101295.09425610917
2023-09-05T08:37:26.491Z,101295.1403332392
2023-09-05T08:40:24.066Z,101288.85306728145
2023-09-05T08:43:21.668Z,101290.8859612615
2023-09-05T08:46:19.278Z,101284.89537148162
2023-09-05T08:49:14.731Z,101290.50742654357
2023-09-05T08:52:16.758Z,101288.46852217274
2023-09-05T08:55:15.823Z,101285.73320220593
2023-09-05T08:58:12.412Z,101286.18392593681
2023-09-05T09:01:08.034Z,101290.86917542102
2023-09-05T09:04:04.535Z,101290.39746135446
2023-09-05T09:07:01.073Z,101282.01299761739
2023-09-05T09:10:17.595Z,101283.14639703535
2023-09-05T09:13:15.125Z,101281.67360316067
2023-09-05T09:16:17.719Z,101270.40845266974
2023-09-05T09:19:16.957Z,101268.24511359454
2023-09-05T09:22:12.870Z,101258.93533565372
2023-09-05T09:25:13.381Z,101256.92897778474
2023-09-05T09:28:08.901Z,101258.59007971155
2023-09-05T09:31:06.509Z,101258.92575932013
2023-09-05T09:34:07.030Z,101260.36771938346
2023-09-05T09:37:04.581Z,101258.76283272002
2023-09-05T09:40:05.124Z,101262.54066898506
2023-09-05T09:43:01.651Z,101260.93642665893
2023-09-05T09:46:00.323Z,101263.07778720475
2023-09-05T09:49:00.777Z,101267.98808535299
2023-09-05T09:52:04.332Z,101269.03376022416
2023-09-05T09:55:03.892Z,101272.52162892076
2023-09-05T09:58:05.406Z,101273.53851585941
2023-09-05T10:01:05.000Z,101276.55443449688
2023-09-05T10:04:02.553Z,101270.30702152234
2023-09-05T10:07:00.182Z,101281.07474571635
2023-09-05T10:09:57.658Z,101276.57977310738
2023-09-05T10:12:57.233Z,101267.43501393127
2023-09-05T10:15:54.801Z,101276.50081650919
2023-09-05T10:18:51.414Z,101267.50269402596
2023-09-05T10:21:50.879Z,101270.22140835648
2023-09-05T10:24:49.506Z,101269.02744476048
2023-09-05T10:27:44.984Z,101268.1454558558
2023-09-05T10:30:47.534Z,101264.70512575305
2023-09-05T10:33:45.092Z,101253.68277196334
2023-09-05T10:36:46.676Z,101255.00820092016
2023-09-05T10:39:55.172Z,101251.83572907327
2023-09-05T10:42:55.734Z,101253.68921689095
2023-09-05T10:45:57.339Z,101255.86523472205
2023-09-05T10:49:02.764Z,101258.02155201527
2023-09-05T10:52:08.354Z,101252.25833991509
2023-09-05T10:55:09.889Z,101255.39815922266
2023-09-05T10:58:20.423Z,101252.60369652379
2023-09-05T11:01:29.940Z,101251.83552651497
2023-09-05T11:04:28.549Z,101243.5558711888
2023-09-05T11:07:32.048Z,101249.63702988268
2023-09-05T11:10:29.615Z,101241.61832413584
2023-09-05T11:13:27.413Z,101244.52927448659
2023-09-05T11:16:28.839Z,101240.56989038599
2023-09-05T11:19:38.267Z,101234.67136699671
2023-09-05T11:22:42.196Z,101242.02716336428
2023-09-05T11:25:42.423Z,101239.08106692212
2023-09-05T11:28:38.920Z,101241.45107419041
2023-09-05T11:31:35.546Z,101242.99593614136
2023-09-05T11:34:30.985Z,101242.82224907703
2023-09-05T11:37:29.556Z,101243.35361092947
2023-09-05T11:40:27.141Z,101237.74226340868
2023-09-05T11:43:29.816Z,101231.5557167522
2023-09-05T11:46:27.184Z,101229.33340387502
2023-09-05T11:49:23.781Z,101219.41570605189
2023-09-05T11:52:20.372Z,101213.4261058953
2023-09-05T11:55:17.906Z,101216.69377486323
2023-09-05T11:58:16.450Z,101216.24615183892
2023-09-05T12:01:21.039Z,101210.29726929101
2023-09-05T12:04:17.689Z,101210.51089938387
2023-09-05T12:07:13.090Z,101210.26432101664
2023-09-05T12:10:10.792Z,101206.12899847486
2023-09-05T12:13:07.217Z,101199.24216182552
2023-09-05T12:16:06.754Z,101199.61302948889
2023-09-05T12:19:03.339Z,101194.97601938307
2023-09-05T12:22:03.898Z,101196.73875749978
2023-09-05T12:25:09.416Z,101191.47875439157
2023-09-05T12:28:16.942Z,101194.5687444591
2023-09-05T12:31:18.662Z,101189.46330096462
2023-09-05T12:34:15.056Z,101183.94366321672
2023-09-05T12:37:10.675Z,101181.46854997143
2023-09-05T12:40:08.256Z,101182.16896621075
2023-09-05T12:43:04.719Z,101176.67665473609
2023-09-05T12:46:01.503Z,101178.86035714921
2023-09-05T12:48:59.125Z,101178.3509000209
2023-09-05T12:51:58.379Z,101177.33563235299
2023-09-05T12:54:54.967Z,101175.61193310724
2023-09-05T12:57:50.510Z,101178.57720897182
2023-09-05T13:00:48.066Z,101174.8328359885
2023-09-05T13:03:43.643Z,101174.7813766873
2023-09-05T13:06:43.213Z,101178.49344375853
2023-09-05T13:09:38.731Z,101169.3954238981
2023-09-05T13:12:35.322Z,101165.42948616184
2023-09-05T13:15:31.903Z,101161.89058192832
2023-09-05T13:18:28.580Z,101169.47564424641
2023-09-05T13:21:26.019Z,101172.05589578193
2023-09-05T13:24:21.564Z,101172.59038624239
2023-09-05T13:27:19.121Z,101170.41517933067
2023-09-05T13:30:15.625Z,101172.05815148592
2023-09-05T13:33:12.440Z,101168.75762889898
2023-09-05T13:36:08.879Z,101167.44537043502
2023-09-05T13:39:04.437Z,101170.1766837204
2023-09-05T13:42:01.957Z,101165.58042931266
2023-09-05T13:44:57.465Z,101174.50591425493
2023-09-05T13:47:53.090Z,101177.44262810661
2023-09-05T13:50:54.628Z,101169.13575606576
2023-09-05T13:53:53.172Z,101166.44503927606
2023-09-05T13:56:49.752Z,101176.75557949109
2023-09-05T13:59:46.416Z,101176.53343463298
2023-09-05T14:02:42.827Z,101176.19229381428
2023-09-05T14:05:40.400Z,101164.00467495415
2023-09-05T14:08:35.962Z,101165.49821287373
2023-09-05T14:11:31.516Z,101171.95548739351
2023-09-05T14:14:28.037Z,101170.27445431014
2023-09-05T14:17:26.653Z,101166.66905270999
2023-09-05T14:20:25.205Z,101166.73990613066
2023-09-05T14:23:20.730Z,101158.62197912035
2023-09-05T14:26:16.253Z,101154.88154051769
2023-09-05T14:29:14.840Z,101155.63602307599
2023-09-05T14:32:10.489Z,101157.12197965408
2023-09-05T14:35:06.961Z,101155.2553549776
2023-09-05T14:38:02.501Z,101166.41012186611
2023-09-05T14:40:59.076Z,101154.88533030181
2023-09-05T14:43:56.733Z,101156.03887273026
2023-09-05T14:46:52.205Z,101159.70391131096
2023-09-05T14:49:47.751Z,101148.87238577298
2023-09-05T14:52:43.332Z,101150.70238404318
2023-09-05T14:55:39.886Z,101149.92344838397
2023-09-05T14:58:35.426Z,101149.44487416386
2023-09-05T15:01:31.142Z,101146.53906040716
2023-09-05T15:04:26.672Z,101142.1448822011
2023-09-05T15:07:22.153Z,101149.98653124455
2023-09-05T15:10:18.741Z,101143.85302655686
2023-09-05T15:13:14.221Z,101152.22460756097
2023-09-05T15:16:10.989Z,101155.98515938142
2023-09-05T15:19:08.468Z,101157.68834705788
2023-09-05T15:22:04.902Z,101153.95613202633
2023-09-05T15:25:05.462Z,101156.80297098364
2023-09-05T15:28:07.018Z,101157.36446062419
2023-09-05T15:31:05.582Z,101155.60293049726
2023-09-05T15:34:02.334Z,101155.64270709321
2023-09-05T15:36:57.712Z,101151.67452239929
2023-09-05T15:39:53.212Z,101149.46119073714
2023-09-05T15:42:48.840Z,101147.75205987386
2023-09-05T15:45:47.548Z,101143.51189379579
2023-09-05T15:48:44.003Z,101142.426940802
2023-09-05T15:51:44.624Z,101140.15838165145
2023-09-05T15:54:43.319Z,101130.65145479956
2023-09-05T15:57:40.805Z,101135.08245685631
2023-09-05T16:00:37.228Z,101125.7304342072
2023-09-05T16:03:33.843Z,101135.7834107174
2023-09-05T16:06:31.294Z,101129.16109539538
2023-09-05T16:09:26.848Z,101133.4253025869
2023-09-05T16:12:24.407Z,101134.82731884652
2023-09-05T16:15:20.009Z,101130.80995076845
2023-09-05T16:18:16.669Z,101125.82140057196
2023-09-05T16:21:13.194Z,101131.7202016514
2023-09-05T16:24:08.708Z,101127.7035786682
2023-09-05T16:27:06.219Z,101125.15455945075
2023-09-05T16:30:01.808Z,101123.8980908452
2023-09-05T16:32:57.360Z,101120.92335904499
2023-09-05T16:35:59.918Z,101121.96228982549
2023-09-05T16:38:56.423Z,101121.05525477513
2023-09-05T16:41:51.980Z,101123.05023393623
2023-09-05T16:44:47.551Z,101125.4385384118
2023-09-05T16:47:43.144Z,101125.40825956984
2023-09-05T16:50:41.457Z,101122.65899922291
2023-09-05T16:53:37.183Z,101130.89328402774
2023-09-05T16:56:33.795Z,101125.54059247005
2023-09-05T16:59:32.344Z,101129.21209825552
2023-09-05T17:02:27.957Z,101126.95157195254
2023-09-05T17:05:23.453Z,101135.4095366911
2023-09-05T17:08:19.044Z,101136.65674626241
2023-09-05T17:11:20.556Z,101134.04867822044
2023-09-05T17:14:17.158Z,101137.32166528622
2023-09-05T17:17:13.685Z,101132.66740788161
2023-09-05T17:20:10.241Z,101140.72357979968
2023-09-05T17:23:07.806Z,101139.91351786723
2023-09-05T17:26:04.359Z,101143.95896666592
2023-09-05T17:28:59.913Z,101139.56389929543
2023-09-05T17:31:56.489Z,101132.46879343266
2023-09-05T17:34:53.055Z,101145.24031995333
2023-09-05T17:37:51.583Z,101142.48608663696
2023-09-05T17:40:49.149Z,101142.56914150433
2023-09-05T17:43:44.759Z,101147.84731533554
2023-09-05T17:46:40.346Z,101150.85562182512
2023-09-05T17:49:35.838Z,101151.24205754849
2023-09-05T17:52:34.501Z,101149.85332061573
2023-09-05T17:55:29.942Z,101145.7729309093
2023-09-05T17:58:26.899Z,101145.21471849586
2023-09-05T18:01:23.112Z,101142.00120139755
2023-09-05T18:04:19.788Z,101147.23600582572
2023-09-05T18:07:19.152Z,101145.75946547871
2023-09-05T18:10:16.800Z,101154.83699532223
2023-09-05T18:13:14.415Z,101148.54987320314
2023-09-05T18:16:12.904Z,101157.21679617796
2023-09-05T18:19:08.558Z,101148.70421617111
2023-09-05T18:22:08.009Z,101161.71111857059
2023-09-05T18:25:09.612Z,101160.71584971526
2023-09-05T18:28:05.864Z,101162.72112962785
2023-09-05T18:31:04.682Z,101168.1500138797
2023-09-05T18:34:00.291Z,101166.53275303666
2023-09-05T18:36:55.770Z,101173.27281419653
2023-09-05T18:39:51.331Z,101174.0932582334
2023-09-05T18:42:46.930Z,101170.53771656362
2023-09-05T18:45:43.612Z,101175.20219596915
2023-09-05T18:48:40.024Z,101178.86032967907
2023-09-05T18:51:40.605Z,101176.06627096082
2023-09-05T18:54:40.420Z,101177.42904525922
2023-09-05T18:57:36.736Z,101179.08178515639
2023-09-05T19:00:32.316Z,101185.76436628183
2023-09-05T19:03:27.917Z,101181.79853453653
2023-09-05T19:06:24.378Z,101179.92703438603
2023-09-05T19:09:24.960Z,101175.34815967358
2023-09-05T19:12:20.460Z,101181.72326100268
2023-09-05T19:15:16.060Z,101177.6329078908
2023-09-05T19:18:12.825Z,101179.67487783179
2023-09-05T19:21:10.150Z,101185.20831483837
2023-09-05T19:24:14.480Z,101183.89603619053
2023-09-05T19:27:11.250Z,101180.18032483433
2023-09-05T19:30:07.810Z,101187.31995791692
2023-09-05T19:33:04.477Z,101188.96598866659
2023-09-05T19:36:01.904Z,101191.46406658771
2023-09-05T19:38:57.469Z,101191.49552527828
2023-09-05T19:41:53.051Z,101196.40919071755
2023-09-05T19:44:49.652Z,101200.1067751472
2023-09-05T19:47:45.171Z,101199.9129255347
2023-09-05T19:50:42.788Z,101201.43600642485
2023-09-05T19:53:40.252Z,101202.03478487636
2023-09-05T19:56:36.916Z,101198.01714212146
2023-09-05T19:59:32.429Z,101199.31833962553
2023-09-05T20:02:29.032Z,101200.62866762702
2023-09-05T20:05:24.562Z,101199.26511303122
2023-09-05T20:08:25.246Z,101202.07726899453
2023-09-05T20:11:23.663Z,101203.94754260143
2023-09-05T20:14:19.150Z,101206.18423916993
2023-09-05T20:17:14.802Z,101209.72515501511
2023-09-05T20:20:13.296Z,101212.49327408778
2023-09-05T20:23:08.846Z,101206.99854577254
2023-09-05T20:26:04.416Z,101202.64945736708
2023-09-05T20:29:03.997Z,101200.11213572208
2023-09-05T20:31:59.533Z,101200.33073702107
2023-09-05T20:34:55.104Z,101205.25661843938
2023-09-05T20:37:51.661Z,101204.54705676995
2023-09-05T20:40:48.193Z,101212.32382174948
2023-09-05T20:43:43.770Z,101210.47316240672
2023-09-05T20:46:41.382Z,101214.64991258718
2023-09-05T20:49:36.898Z,101218.09356988138
2023-09-05T20:52:32.426Z,101212.98470701574
2023-09-05T20:55:28.009Z,101223.51327459689
2023-09-05T20:58:26.791Z,101219.59068931431
2023-09-05T21:01:26.176Z,101218.35687307513
2023-09-05T21:04:21.866Z,101222.88059169856
2023-09-05T21:07:17.296Z,101227.68171158983
2023-09-05T21:10:12.790Z,101229.50568680174
2023-09-05T21:13:11.400Z,101232.06916034831
2023-09-05T21:16:08.932Z,101233.9120687807
2023-09-05T21:19:04.576Z,101227.9860772479
2023-09-05T21:22:05.030Z,101231.01669226051
2023-09-05T21:25:02.596Z,101232.3233169876
2023-09-05T21:27:58.146Z,101232.18036090562
2023-09-05T21:30:53.822Z,101229.57035731367
2023-09-05T21:33:49.352Z,101229.49152680702
2023-09-05T21:36:46.865Z,101225.80548201826
2023-09-05T21:39:42.437Z,101224.27039848237
2023-09-05T21:42:38.742Z,101221.18968366602
2023-09-05T21:45:36.525Z,101228.0093066778
2023-09-05T21:48:33.109Z,101218.8913572353
2023-09-05T21:51:28.629Z,101216.37296598483
2023-09-05T21:54:25.229Z,101215.620927717
2023-09-05T21:57:20.757Z,101217.89184887208
2023-09-05T22:00:31.343Z,101220.02288771913
2023-09-05T22:03:27.920Z,101222.13556890032
2023-09-05T22:06:23.455Z,101229.66178193729
2023-09-05T22:09:20.972Z,101225.71766454664
2023-09-05T22:12:16.575Z,101224.99836575236
2023-09-05T22:15:13.090Z,101227.12253292682
2023-09-05T22:18:09.770Z,101223.22489453433
2023-09-05T22:21:05.173Z,101227.76341506452
2023-09-05T22:24:00.772Z,101229.05927347382
2023-09-05T22:26:59.287Z,101233.81972383407
2023-09-05T22:29:57.868Z,101228.3091002568
2023-09-05T22:32:56.484Z,101222.14778637156
2023-09-05T22:35:52.971Z,101230.69165109737
2023-09-05T22:38:51.517Z,101227.54268841693
2023-09-05T22:41:49.147Z,101227.72901459414
2023-09-05T22:44:44.632Z,101224.19794800825
2023-09-05T22:47:42.334Z,101230.17132183426
2023-09-05T22:50:40.760Z,101228.32473022949
2023-09-05T22:53:38.282Z,101232.95364583055
2023-09-05T22:56:40.868Z,101237.84029431113
2023-09-05T22:59:37.419Z,101225.04042689443
2023-09-05T23:02:33.100Z,101224.05326354435
2023-09-05T23:05:28.546Z,101216.97732635519
2023-09-05T23:08:24.108Z,101215.91593260437
2023-09-05T23:11:20.657Z,101216.92742453807
2023-09-05T23:14:18.215Z,101217.39594101137
2023-09-05T23:17:13.871Z,101220.75837438361
2023-09-05T23:20:13.453Z,101219.84656756296
2023-09-05T23:23:08.871Z,101220.86951597244
2023-09-05T23:26:09.448Z,101219.09278710645
2023-09-05T23:29:06.062Z,101215.87761360047
2023-09-05T23:32:03.566Z,101218.2738517113
2023-09-05T23:35:00.145Z,101218.51379547716
2023-09-05T23:37:55.669Z,101217.90624692087
2023-09-05T23:40:52.248Z,101219.03396374872
2023-09-05T23:43:47.767Z,101217.94210184798
2023-09-05T23:46:45.429Z,101220.4381404027
2023-09-05T23:49:42.924Z,101227.49819233488
2023-09-05T23:52:39.494Z,101223.36820010048
2023-09-05T23:55:38.014Z,101222.66877746828
2023-09-05T23:58:34.624Z,101225.09164171989
